Time;durP1;ratioP1;P1;durP2;ratioP2;P2;SDS_P1;SDS_P2;PMS_P1;PMS_P2;Temp;Humidity;BMP_temperature;BMP_pressure;BME280_temperature;BME280_humidity;BME280_pressure;Samples;Min_cycle;Max_cycle;Signal;HPM_P1;HPM_P2
2022/03/16 00:03:03;;;;;;;134.15;57.33;;;;;;;;;;10473256;28;20244;-68
2022/03/16 00:08:05;;;;;;;134.73;58.55;;;;;;;;;;10452466;28;20459;-67
2022/03/16 00:13:09;;;;;;;116.68;52.58;;;;;;;;;;10468762;28;20060;-68
2022/03/16 00:18:13;;;;;;;117.82;53.67;;;;;;;;;;10472378;28;20359;-68
2022/03/16 00:23:16;;;;;;;105.55;50.65;;;;;;;;;;10471904;28;20209;-67
2022/03/16 00:28:20;;;;;;;104.32;52.42;;;;;;;;;;10472579;28;20340;-68
2022/03/16 00:33:22;;;;;;;102.03;49.75;;;;;;;;;;10472227;28;20045;-68
2022/03/16 00:38:25;;;;;;;114.22;48.85;;;;;;;;;;10471957;28;20244;-67
2022/03/16 00:43:29;;;;;;;102.38;49.33;;;;;;;;;;10478699;28;20083;-67
2022/03/16 00:48:32;;;;;;;101.72;48.03;;;;;;;;;;10479434;28;20363;-67
2022/03/16 00:53:34;;;;;;;104.68;51.40;;;;;;;;;;10467363;28;20052;-68
2022/03/16 00:58:38;;;;;;;108.85;52.67;;;;;;;;;;10459262;28;20053;-68
2022/03/16 01:03:41;;;;;;;110.53;53.40;;;;;;;;;;10478885;28;20048;-68
2022/03/16 01:08:43;;;;;;;112.63;54.03;;;;;;;;;;10478912;28;20052;-68
2022/03/16 01:13:47;;;;;;;125.68;60.83;;;;;;;;;;10478664;28;20079;-69
2022/03/16 01:18:50;;;;;;;135.45;66.07;;;;;;;;;;10479090;28;20274;-67
2022/03/16 01:23:52;;;;;;;146.50;70.85;;;;;;;;;;10477442;28;20086;-67
2022/03/16 01:28:56;;;;;;;145.55;70.15;;;;;;;;;;10477881;28;20045;-67
2022/03/16 01:33:58;;;;;;;140.68;69.13;;;;;;;;;;10477738;28;20044;-68
2022/03/16 01:39:01;;;;;;;143.10;70.03;;;;;;;;;;10477628;28;20260;-68
2022/03/16 01:44:06;;;;;;;151.57;73.85;;;;;;;;;;10459634;28;20065;-67
2022/03/16 01:49:09;;;;;;;152.32;72.93;;;;;;;;;;10446297;28;20049;-67
2022/03/16 01:54:12;;;;;;;150.77;73.40;;;;;;;;;;10449314;28;20033;-67
2022/03/16 01:59:16;;;;;;;138.65;70.80;;;;;;;;;;10442233;28;20086;-67
2022/03/16 02:04:18;;;;;;;136.70;70.53;;;;;;;;;;10469213;28;20324;-67
2022/03/16 02:09:22;;;;;;;136.15;70.53;;;;;;;;;;10477485;28;20099;-67
2022/03/16 02:14:26;;;;;;;133.45;71.05;;;;;;;;;;10476685;28;20040;-67
2022/03/16 02:19:28;;;;;;;135.63;68.97;;;;;;;;;;10476943;28;20063;-68
2022/03/16 02:24:32;;;;;;;128.77;66.85;;;;;;;;;;10476045;28;20287;-68
2022/03/16 02:29:35;;;;;;;139.43;71.15;;;;;;;;;;10475563;28;20071;-68
2022/03/16 02:34:37;;;;;;;127.57;67.30;;;;;;;;;;10475060;28;20049;-66
2022/03/16 02:39:41;;;;;;;122.15;64.75;;;;;;;;;;10474914;28;20052;-67
2022/03/16 02:44:44;;;;;;;133.60;66.03;;;;;;;;;;10392988;28;20351;-67
2022/03/16 02:49:46;;;;;;;121.07;62.03;;;;;;;;;;10392779;28;20057;-68
2022/03/16 02:54:50;;;;;;;125.15;64.40;;;;;;;;;;10381233;28;20050;-67
2022/03/16 02:59:53;;;;;;;119.03;62.70;;;;;;;;;;10362019;28;20034;-68
2022/03/16 03:04:55;;;;;;;125.05;62.47;;;;;;;;;;10378170;28;20050;-68
2022/03/16 03:09:58;;;;;;;116.15;61.47;;;;;;;;;;10363458;28;20153;-67
2022/03/16 03:15:01;;;;;;;110.75;59.53;;;;;;;;;;10390182;28;20132;-67
2022/03/16 03:20:03;;;;;;;115.95;57.67;;;;;;;;;;10365349;28;20049;-67
2022/03/16 03:25:11;;;;;;;108.68;57.35;;;;;;;;;;10391542;28;20240;-67
2022/03/16 03:30:14;;;;;;;99.05;53.40;;;;;;;;;;10404853;28;20092;-67
2022/03/16 03:35:16;;;;;;;101.13;54.13;;;;;;;;;;10390423;28;20387;-67
2022/03/16 03:40:20;;;;;;;121.05;59.47;;;;;;;;;;10387559;28;20049;-67
2022/03/16 03:45:23;;;;;;;103.57;55.92;;;;;;;;;;10458889;28;20041;-67
2022/03/16 03:50:25;;;;;;;99.95;52.85;;;;;;;;;;10464945;28;20048;-67
2022/03/16 03:55:29;;;;;;;100.35;53.30;;;;;;;;;;10460764;28;20232;-67
2022/03/16 04:00:31;;;;;;;101.20;52.38;;;;;;;;;;10452602;28;20045;-67
2022/03/16 04:05:33;;;;;;;98.40;52.20;;;;;;;;;;10432090;28;20124;-67
2022/03/16 04:10:38;;;;;;;106.65;54.17;;;;;;;;;;10439615;28;20041;-68
2022/03/16 04:15:41;;;;;;;104.18;54.35;;;;;;;;;;10474743;28;20126;-68
2022/03/16 04:20:43;;;;;;;109.15;57.05;;;;;;;;;;10481444;28;20053;-68
2022/03/16 04:25:47;;;;;;;106.10;56.65;;;;;;;;;;10480647;28;20045;-68
2022/03/16 04:30:50;;;;;;;110.75;58.53;;;;;;;;;;10451778;28;20218;-67
2022/03/16 04:35:53;;;;;;;109.45;58.40;;;;;;;;;;10466335;28;20064;-68
2022/03/16 04:40:57;;;;;;;108.15;59.25;;;;;;;;;;10479414;28;20065;-68
2022/03/16 04:46:00;;;;;;;112.40;59.38;;;;;;;;;;10478780;28;20047;-68
2022/03/16 04:51:02;;;;;;;120.15;62.20;;;;;;;;;;10479151;28;20049;-68
2022/03/16 04:56:06;;;;;;;118.88;60.72;;;;;;;;;;10467917;28;20071;-68
2022/03/16 05:01:09;;;;;;;116.60;64.05;;;;;;;;;;10478221;28;20240;-67
2022/03/16 05:06:11;;;;;;;121.57;65.22;;;;;;;;;;10477811;28;20079;-67
2022/03/16 05:11:15;;;;;;;122.97;66.13;;;;;;;;;;10476400;28;20036;-68
2022/03/16 05:16:17;;;;;;;121.55;65.35;;;;;;;;;;10479300;28;20091;-68
2022/03/16 05:21:19;;;;;;;110.82;62.38;;;;;;;;;;10477777;28;20387;-68
2022/03/16 05:26:23;;;;;;;113.95;60.70;;;;;;;;;;10475592;28;20033;-68
2022/03/16 05:31:26;;;;;;;105.50;58.50;;;;;;;;;;10478263;28;20037;-68
2022/03/16 05:36:28;;;;;;;100.32;56.80;;;;;;;;;;10458115;28;20049;-68
2022/03/16 05:41:32;;;;;;;111.45;60.97;;;;;;;;;;10471915;28;20061;-68
2022/03/16 05:46:35;;;;;;;103.63;58.72;;;;;;;;;;10478160;28;20235;-69
2022/03/16 05:51:37;;;;;;;104.82;58.00;;;;;;;;;;10477952;28;20344;-68
2022/03/16 05:56:41;;;;;;;105.00;56.22;;;;;;;;;;10476810;28;20056;-68
2022/03/16 06:01:43;;;;;;;96.30;55.35;;;;;;;;;;10462096;28;20049;-68
2022/03/16 06:06:45;;;;;;;95.93;53.35;;;;;;;;;;10454865;28;20348;-67
2022/03/16 06:11:49;;;;;;;96.88;54.58;;;;;;;;;;10464788;28;20348;-68
2022/03/16 06:16:52;;;;;;;95.88;51.72;;;;;;;;;;10474391;28;20048;-68
2022/03/16 06:21:56;;;;;;;;;;;;;;;;;;10478061;28;20363;-67
2022/03/16 06:27:00;;;;;;;89.47;48.67;;;;;;;;;;10459240;28;19916;-68
2022/03/16 06:32:03;;;;;;;87.63;51.75;;;;;;;;;;10477374;28;20064;-68
2022/03/16 06:37:05;;;;;;;91.25;53.22;;;;;;;;;;10475724;28;20332;-67
2022/03/16 06:42:10;;;;;;;91.90;53.00;;;;;;;;;;10474242;28;20065;-68
2022/03/16 06:47:13;;;;;;;98.78;55.63;;;;;;;;;;10475430;28;20084;-68
2022/03/16 06:52:15;;;;;;;122.70;62.78;;;;;;;;;;10475243;28;20048;-69
2022/03/16 06:57:19;;;;;;;117.60;64.30;;;;;;;;;;10469130;28;20071;-67
2022/03/16 07:02:21;;;;;;;98.20;57.25;;;;;;;;;;10451969;28;20069;-68
2022/03/16 07:07:26;;;;;;;98.30;57.88;;;;;;;;;;10461758;28;20049;-69
2022/03/16 07:12:30;;;;;;;99.95;55.72;;;;;;;;;;10474617;28;20053;-68
2022/03/16 07:17:32;;;;;;;98.35;56.22;;;;;;;;;;10461257;28;20221;-69
2022/03/16 07:22:35;;;;;;;96.28;55.70;;;;;;;;;;10435151;28;20337;-69
2022/03/16 07:27:40;;;;;;;95.00;55.60;;;;;;;;;;10438526;28;20052;-68
2022/03/16 07:32:44;;;;;;;101.93;58.17;;;;;;;;;;10473249;28;20328;-68
2022/03/16 07:37:47;;;;;;;103.10;61.25;;;;;;;;;;10456207;28;20120;-69
2022/03/16 07:42:52;;;;;;;100.95;60.15;;;;;;;;;;10469345;28;20064;-70
2022/03/16 07:47:56;;;;;;;91.85;58.67;;;;;;;;;;10458872;28;20252;-69
2022/03/16 07:52:58;;;;;;;92.72;58.10;;;;;;;;;;10471914;28;20052;-71
2022/03/16 07:58:02;;;;;;;91.22;57.17;;;;;;;;;;10471133;28;20355;-68
2022/03/16 08:03:05;;;;;;;93.45;56.80;;;;;;;;;;10453416;28;20044;-71
2022/03/16 08:08:09;;;;;;;82.50;54.33;;;;;;;;;;10458385;28;20037;-69
2022/03/16 08:13:12;;;;;;;82.25;54.65;;;;;;;;;;10453197;28;20087;-72
2022/03/16 08:18:15;;;;;;;78.30;54.20;;;;;;;;;;10467677;28;20078;-68
2022/03/16 08:23:17;;;;;;;78.43;51.88;;;;;;;;;;10472125;28;20049;-68
2022/03/16 08:28:21;;;;;;;66.50;46.42;;;;;;;;;;10470751;28;20396;-69
2022/03/16 08:33:24;;;;;;;60.70;44.05;;;;;;;;;;10471428;28;20049;-69
2022/03/16 08:38:28;;;;;;;55.03;40.33;;;;;;;;;;10469462;28;20087;-68
2022/03/16 08:43:32;;;;;;;48.10;37.95;;;;;;;;;;10469577;28;20065;-68
2022/03/16 08:48:35;;;;;;;42.90;36.63;;;;;;;;;;10472091;28;20091;-69
2022/03/16 08:53:38;;;;;;;42.65;34.45;;;;;;;;;;10470606;28;20077;-69
2022/03/16 08:58:41;;;;;;;37.92;32.58;;;;;;;;;;10472366;28;20335;-69
2022/03/16 09:03:44;;;;;;;37.10;31.02;;;;;;;;;;10469253;28;20044;-69
2022/03/16 09:08:46;;;;;;;38.00;32.05;;;;;;;;;;10447100;28;20057;-69
2022/03/16 09:13:50;;;;;;;37.72;30.85;;;;;;;;;;10438250;28;20100;-69
2022/03/16 09:18:52;;;;;;;35.15;31.17;;;;;;;;;;10477425;28;20080;-69
2022/03/16 09:23:55;;;;;;;35.85;31.15;;;;;;;;;;10473568;28;20049;-71
2022/03/16 09:29:00;;;;;;;38.10;31.92;;;;;;;;;;10477334;28;20060;-68
2022/03/16 09:34:05;;;;;;;37.20;33.15;;;;;;;;;;10477157;28;20048;-71
2022/03/16 09:39:08;;;;;;;43.10;35.88;;;;;;;;;;10476402;28;20083;-71
2022/03/16 09:44:13;;;;;;;52.13;39.42;;;;;;;;;;10477103;28;20092;-71
2022/03/16 09:49:15;;;;;;;46.30;39.22;;;;;;;;;;10477356;28;20075;-70
2022/03/16 09:54:18;;;;;;;49.22;39.95;;;;;;;;;;10475646;28;20083;-71
2022/03/16 09:59:22;;;;;;;56.00;42.38;;;;;;;;;;10443106;28;20049;-67
2022/03/16 10:04:31;;;;;;;55.00;42.28;;;;;;;;;;10434351;28;20149;-67
2022/03/16 10:15:03;;;;;;;54.35;41.67;;;;;;;;;;10489347;28;20040;-68
2022/03/16 10:20:06;;;;;;;56.75;42.90;;;;;;;;;;10489910;28;20049;-72
2022/03/16 10:25:10;;;;;;;63.85;44.40;;;;;;;;;;10460576;28;20199;-70
2022/03/16 10:30:14;;;;;;;58.85;41.67;;;;;;;;;;10475903;28;20106;-68
2022/03/16 10:35:17;;;;;;;55.13;43.95;;;;;;;;;;10438094;28;20045;-68
2022/03/16 10:40:20;;;;;;;55.45;42.75;;;;;;;;;;10468905;28;20060;-67
2022/03/16 10:50:45;;;;;;;54.47;40.80;;;;;;;;;;10473090;28;20084;-67
2022/03/16 10:55:48;;;;;;;80.40;42.90;;;;;;;;;;10459443;28;20049;-67
2022/03/16 11:00:53;;;;;;;55.60;40.58;;;;;;;;;;10461108;28;20041;-67
2022/03/16 11:05:56;;;;;;;50.83;38.40;;;;;;;;;;10453919;28;20053;-68
2022/03/16 11:10:59;;;;;;;62.45;41.40;;;;;;;;;;10444591;28;20079;-67
2022/03/16 11:16:03;;;;;;;55.92;41.55;;;;;;;;;;10453368;28;20064;-67
2022/03/16 11:21:10;;;;;;;60.15;44.00;;;;;;;;;;10461744;28;20358;-69
2022/03/16 11:26:25;;;;;;;64.60;44.88;;;;;;;;;;10486080;28;20087;-71
2022/03/16 11:31:34;;;;;;;55.80;37.90;;;;;;;;;;10486851;28;20056;-67
2022/03/16 11:36:40;;;;;;;48.20;34.65;;;;;;;;;;10464992;28;20049;-68
2022/03/16 11:41:49;;;;;;;50.75;36.25;;;;;;;;;;10473425;28;20045;-68
2022/03/16 11:46:54;;;;;;;51.28;36.38;;;;;;;;;;10459582;28;20103;-69
2022/03/16 11:51:59;;;;;;;57.20;36.70;;;;;;;;;;10450483;28;20045;-68
2022/03/16 11:57:01;;;;;;;50.72;37.67;;;;;;;;;;10455452;28;20050;-67
2022/03/16 12:02:22;;;;;;;48.97;36.15;;;;;;;;;;10466747;28;20056;-68
2022/03/16 12:07:28;;;;;;;53.45;37.75;;;;;;;;;;10465267;28;20132;-68
2022/03/16 12:12:51;;;;;;;57.55;39.90;;;;;;;;;;10478387;28;20091;-68
2022/03/16 12:18:26;;;;;;;60.17;41.35;;;;;;;;;;10479151;28;20101;-68
2022/03/16 12:23:58;;;;;;;55.90;40.57;;;;;;;;;;10343065;28;20065;-66
2022/03/16 12:29:08;;;;;;;57.13;39.65;;;;;;;;;;10311233;28;20053;-67
2022/03/16 12:34:14;;;;;;;68.88;40.08;;;;;;;;;;10356510;28;20432;-67
2022/03/16 12:39:17;;;;;;;68.90;42.13;;;;;;;;;;10347512;28;20069;-66
2022/03/16 12:44:21;;;;;;;65.47;38.88;;;;;;;;;;10352951;28;20094;-67
2022/03/16 12:49:25;;;;;;;51.60;37.03;;;;;;;;;;10335170;28;20051;-66
2022/03/16 12:54:29;;;;;;;63.33;35.63;;;;;;;;;;10369491;28;20155;-66
2022/03/16 12:59:34;;;;;;;47.85;35.30;;;;;;;;;;10477417;28;20043;-66
2022/03/16 13:04:37;;;;;;;;;;;;;;;;;;10471838;28;20087;-67
2022/03/16 13:09:40;;;;;;;57.40;35.72;;;;;;;;;;10442434;28;19947;-67
2022/03/16 13:14:46;;;;;;;55.03;34.95;;;;;;;;;;10478829;28;20044;-67
2022/03/16 13:19:54;;;;;;;46.60;34.33;;;;;;;;;;10479117;28;20053;-68
2022/03/16 13:24:58;;;;;;;52.67;34.92;;;;;;;;;;10476911;28;20053;-67
2022/03/16 13:30:03;;;;;;;;;;;;;;;;;;10478554;28;20055;-67
2022/03/16 13:35:15;;;;;;;40.95;27.33;;;;;;;;;;10476964;28;19970;-67
2022/03/16 13:40:25;;;;;;;44.58;30.90;;;;;;;;;;10474709;28;20055;-67
2022/03/16 13:45:30;;;;;;;53.00;31.10;;;;;;;;;;10476590;28;20048;-70
2022/03/16 13:50:34;;;;;;;39.85;27.48;;;;;;;;;;10475960;28;20040;-68
2022/03/16 13:55:36;;;;;;;50.47;30.00;;;;;;;;;;10475466;28;20090;-67
2022/03/16 14:00:42;;;;;;;33.50;25.40;;;;;;;;;;10471049;28;20048;-67
2022/03/16 14:05:46;;;;;;;38.40;26.92;;;;;;;;;;10477341;28;20264;-68
2022/03/16 14:10:49;;;;;;;46.95;29.65;;;;;;;;;;10444704;28;20061;-67
2022/03/16 14:16:12;;;;;;;39.58;27.10;;;;;;;;;;10475864;28;20048;-68
2022/03/16 14:21:17;;;;;;;38.00;29.10;;;;;;;;;;10490979;28;20045;-67
2022/03/16 14:26:20;;;;;;;40.67;27.85;;;;;;;;;;10489972;28;20045;-68
2022/03/16 14:31:23;;;;;;;36.53;25.58;;;;;;;;;;10439849;28;20046;-68
2022/03/16 14:36:27;;;;;;;36.15;25.38;;;;;;;;;;10435297;28;20218;-67
2022/03/16 14:41:30;;;;;;;40.17;29.08;;;;;;;;;;10443100;28;20064;-67
2022/03/16 14:46:32;;;;;;;42.83;25.23;;;;;;;;;;10451075;28;20056;-66
2022/03/16 14:51:36;;;;;;;43.83;28.50;;;;;;;;;;10436418;28;20049;-69
2022/03/16 14:56:38;;;;;;;47.45;32.38;;;;;;;;;;10474680;28;20059;-66
2022/03/16 15:01:42;;;;;;;43.92;30.50;;;;;;;;;;10456780;28;20221;-69
2022/03/16 15:06:46;;;;;;;48.22;31.48;;;;;;;;;;10469199;28;20216;-68
2022/03/16 15:11:48;;;;;;;47.42;32.08;;;;;;;;;;10473835;28;20045;-66
2022/03/16 15:16:50;;;;;;;49.95;32.55;;;;;;;;;;10473777;28;20132;-67
2022/03/16 15:21:56;;;;;;;53.50;34.00;;;;;;;;;;10475356;28;20037;-68
2022/03/16 15:26:59;;;;;;;53.05;33.55;;;;;;;;;;10474696;28;20049;-67
2022/03/16 15:32:02;;;;;;;44.90;30.15;;;;;;;;;;10473685;28;20056;-66
2022/03/16 15:37:06;;;;;;;61.65;34.30;;;;;;;;;;10474978;28;20045;-69
2022/03/16 15:47:34;;;;;;;56.45;33.47;;;;;;;;;;10457162;28;20268;-69
2022/03/16 15:52:38;;;;;;;41.03;29.75;;;;;;;;;;10474582;28;20068;-68
2022/03/16 15:57:44;;;;;;;47.30;29.15;;;;;;;;;;10475503;28;20118;-68
2022/03/16 16:02:47;;;;;;;58.20;29.63;;;;;;;;;;10471639;28;20386;-68
2022/03/16 16:07:51;;;;;;;45.95;28.10;;;;;;;;;;10468511;28;20243;-69
2022/03/16 16:12:55;;;;;;;50.95;30.52;;;;;;;;;;10480452;28;20239;-68
2022/03/16 16:17:57;;;;;;;53.15;32.63;;;;;;;;;;10471239;28;20189;-68
2022/03/16 16:23:01;;;;;;;53.17;33.63;;;;;;;;;;10472801;28;20095;-68
2022/03/16 16:28:04;;;;;;;53.95;32.53;;;;;;;;;;10481958;28;20056;-69
2022/03/16 16:33:06;;;;;;;53.40;31.60;;;;;;;;;;10465755;28;20047;-66
2022/03/16 16:38:11;;;;;;;55.50;33.08;;;;;;;;;;10439766;28;20316;-68
2022/03/16 16:43:15;;;;;;;69.70;38.30;;;;;;;;;;10460496;28;20256;-68
2022/03/16 16:48:21;;;;;;;71.55;37.05;;;;;;;;;;10478679;28;20367;-68
2022/03/16 16:53:27;;;;;;;55.63;34.88;;;;;;;;;;10475585;28;20049;-68
2022/03/16 16:58:30;;;;;;;60.75;34.50;;;;;;;;;;10463254;28;20276;-68
2022/03/16 17:03:32;;;;;;;70.18;37.42;;;;;;;;;;10463618;28;20327;-69
2022/03/16 17:08:36;;;;;;;61.38;34.53;;;;;;;;;;10479570;28;20083;-69
2022/03/16 17:13:39;;;;;;;64.88;37.47;;;;;;;;;;10479581;28;20324;-67
2022/03/16 17:18:41;;;;;;;71.68;37.83;;;;;;;;;;10476538;28;20071;-68
2022/03/16 17:23:45;;;;;;;70.55;36.00;;;;;;;;;;10477423;28;20048;-69
2022/03/16 17:28:47;;;;;;;71.18;37.92;;;;;;;;;;10476547;28;20049;-67
2022/03/16 17:33:53;;;;;;;75.95;38.25;;;;;;;;;;10454677;28;20045;-68
2022/03/16 17:38:57;;;;;;;73.75;38.63;;;;;;;;;;10467102;28;20232;-68
2022/03/16 17:49:19;;;;;;;100.38;50.20;;;;;;;;;;10437473;28;20064;-69
2022/03/16 17:54:23;;;;;;;106.03;50.67;;;;;;;;;;10451278;28;20159;-67
2022/03/16 17:59:25;;;;;;;96.18;45.75;;;;;;;;;;10479132;28;20056;-68
2022/03/16 18:04:28;;;;;;;89.85;44.63;;;;;;;;;;10479280;28;20053;-67
2022/03/16 18:12:58;;;;;;;92.43;45.30;;;;;;;;;;10461842;28;20072;-67
2022/03/16 18:14:56;;;;;;;116.15;54.10;;;;;;;;;;10461633;28;20252;-69
2022/03/16 18:19:58;;;;;;;106.55;51.47;;;;;;;;;;10471609;28;20045;-67
2022/03/16 18:25:02;;;;;;;98.82;45.22;;;;;;;;;;10450418;28;20298;-68
2022/03/16 18:30:05;;;;;;;108.45;49.03;;;;;;;;;;10459511;28;20044;-68
2022/03/16 18:35:09;;;;;;;104.03;49.22;;;;;;;;;;10454676;28;20231;-67
2022/03/16 18:40:14;;;;;;;124.38;59.38;;;;;;;;;;10455951;28;20041;-68
2022/03/16 18:45:18;;;;;;;122.03;53.35;;;;;;;;;;10488427;28;20304;-68
2022/03/16 18:50:23;;;;;;;102.50;49.42;;;;;;;;;;10477238;28;20056;-65
2022/03/16 18:55:28;;;;;;;108.63;50.97;;;;;;;;;;10448087;28;20045;-68
2022/03/16 19:00:32;;;;;;;103.85;50.25;;;;;;;;;;10470944;28;20270;-68
2022/03/16 19:05:36;;;;;;;101.90;49.05;;;;;;;;;;10475193;28;20048;-68
2022/03/16 19:10:43;;;;;;;108.80;52.13;;;;;;;;;;10445414;28;20275;-67
2022/03/16 19:15:45;;;;;;;113.78;54.33;;;;;;;;;;10451292;28;20049;-68
2022/03/16 19:20:48;;;;;;;109.43;51.67;;;;;;;;;;10476613;28;20048;-68
2022/03/16 19:25:51;;;;;;;100.88;50.03;;;;;;;;;;10475988;28;20048;-68
2022/03/16 19:30:54;;;;;;;101.55;49.53;;;;;;;;;;10475205;28;20055;-68
2022/03/16 19:35:58;;;;;;;102.22;52.72;;;;;;;;;;10444907;28;20045;-68
2022/03/16 19:41:03;;;;;;;97.85;50.20;;;;;;;;;;10434154;28;20069;-68
2022/03/16 19:46:06;;;;;;;99.35;51.20;;;;;;;;;;10473821;28;20128;-66
2022/03/16 19:51:08;;;;;;;102.38;51.10;;;;;;;;;;10473289;28;20102;-67
2022/03/16 19:56:12;;;;;;;99.03;49.85;;;;;;;;;;10475880;28;20060;-68
2022/03/16 20:01:15;;;;;;;104.10;50.60;;;;;;;;;;10473817;28;20044;-67
2022/03/16 20:06:17;;;;;;;108.45;52.05;;;;;;;;;;10467678;28;20340;-67
2022/03/16 20:11:21;;;;;;;106.72;51.33;;;;;;;;;;10473205;28;20041;-68
2022/03/16 20:16:23;;;;;;;111.97;52.17;;;;;;;;;;10474318;28;20041;-68
2022/03/16 20:21:25;;;;;;;121.60;54.83;;;;;;;;;;10444528;28;20045;-67
2022/03/16 20:26:29;;;;;;;120.55;55.40;;;;;;;;;;10472327;28;20056;-67
2022/03/16 20:31:32;;;;;;;127.38;55.85;;;;;;;;;;10472024;28;20037;-68
2022/03/16 20:36:35;;;;;;;138.73;56.67;;;;;;;;;;10470707;28;20298;-68
2022/03/16 20:41:39;;;;;;;143.55;58.85;;;;;;;;;;10472285;28;20064;-68
2022/03/16 20:46:43;;;;;;;133.82;58.40;;;;;;;;;;10472321;28;20068;-67
2022/03/16 20:51:46;;;;;;;146.32;59.53;;;;;;;;;;10446535;28;20068;-67
2022/03/16 20:56:50;;;;;;;150.52;63.70;;;;;;;;;;10451557;28;20332;-68
2022/03/16 21:01:52;;;;;;;135.02;58.92;;;;;;;;;;10481266;28;20263;-67
2022/03/16 21:06:55;;;;;;;146.70;60.47;;;;;;;;;;10479158;28;20347;-67
2022/03/16 21:11:59;;;;;;;146.75;62.20;;;;;;;;;;10480346;28;20045;-68
2022/03/16 21:17:02;;;;;;;148.18;63.10;;;;;;;;;;10480327;28;20151;-68
2022/03/16 21:22:05;;;;;;;148.60;62.20;;;;;;;;;;10448698;28;20053;-67
2022/03/16 21:27:09;;;;;;;141.68;59.40;;;;;;;;;;10449501;28;20099;-68
2022/03/16 21:32:12;;;;;;;144.38;59.80;;;;;;;;;;10480572;28;20057;-68
2022/03/16 21:37:17;;;;;;;142.55;61.53;;;;;;;;;;10476822;28;20045;-69
2022/03/16 21:47:41;;;;;;;142.82;59.08;;;;;;;;;;10479187;28;20118;-68
2022/03/16 21:52:43;;;;;;;145.30;62.35;;;;;;;;;;10478789;28;20111;-67
2022/03/16 21:57:47;;;;;;;146.70;61.97;;;;;;;;;;10467361;28;20339;-67
2022/03/16 22:02:50;;;;;;;150.10;61.17;;;;;;;;;;10480079;28;20045;-67
2022/03/16 22:07:53;;;;;;;143.30;60.92;;;;;;;;;;10462649;28;20044;-68
2022/03/16 22:12:57;;;;;;;147.70;60.80;;;;;;;;;;10451462;28;20049;-68
2022/03/16 22:17:59;;;;;;;163.27;64.68;;;;;;;;;;10436636;28;20091;-68
2022/03/16 22:23:02;;;;;;;155.30;63.08;;;;;;;;;;10440431;28;20061;-68
2022/03/16 22:28:06;;;;;;;145.20;62.85;;;;;;;;;;10469595;28;20057;-67
2022/03/16 22:33:09;;;;;;;139.48;57.65;;;;;;;;;;10473162;28;20197;-68
2022/03/16 22:38:12;;;;;;;125.97;50.92;;;;;;;;;;10475435;28;20337;-68
2022/03/16 22:43:16;;;;;;;156.75;60.65;;;;;;;;;;10457840;28;20202;-68
2022/03/16 22:48:19;;;;;;;149.23;62.10;;;;;;;;;;10475220;28;20279;-68
2022/03/16 22:53:21;;;;;;;156.20;63.30;;;;;;;;;;10475242;28;20052;-69
2022/03/16 22:58:25;;;;;;;154.38;61.20;;;;;;;;;;10473372;28;20063;-68
2022/03/16 23:03:27;;;;;;;150.20;63.17;;;;;;;;;;10475245;28;20075;-68
2022/03/16 23:08:30;;;;;;;153.65;66.40;;;;;;;;;;10474529;28;20299;-69
2022/03/16 23:13:34;;;;;;;161.38;67.70;;;;;;;;;;10451574;28;20063;-68
2022/03/16 23:18:36;;;;;;;167.05;67.20;;;;;;;;;;10474239;28;20320;-67
2022/03/16 23:23:41;;;;;;;171.82;66.97;;;;;;;;;;10473061;28;20044;-68
2022/03/16 23:28:45;;;;;;;;;;;;;;;;;;10474201;28;20076;-69
2022/03/16 23:33:48;;;;;;;171.85;67.18;;;;;;;;;;10473630;28;20279;-67
2022/03/16 23:38:50;;;;;;;175.52;68.75;;;;;;;;;;10473391;28;20041;-69
2022/03/16 23:43:54;;;;;;;171.07;64.93;;;;;;;;;;10463385;28;20363;-66
2022/03/16 23:48:57;;;;;;;192.32;72.20;;;;;;;;;;10433653;28;20064;-68
2022/03/16 23:53:59;;;;;;;190.80;72.72;;;;;;;;;;10448930;28;20224;-68
2022/03/16 23:59:03;;;;;;;197.70;74.30;;;;;;;;;;10473885;28;20072;-67
